createdAt,value
2018-11-03T00:00:37.055Z,3.77
2018-11-03T00:03:05.376Z,3.40
2018-11-03T00:05:33.643Z,4.30
2018-11-03T00:08:01.904Z,3.70
2018-11-03T00:10:30.186Z,3.50
2018-11-03T00:12:58.426Z,2.47
2018-11-03T00:15:27.797Z,4.43
2018-11-03T00:17:56.079Z,2.90
2018-11-03T00:20:24.306Z,3.83
2018-11-03T00:22:52.648Z,4.00
2018-11-03T00:25:20.940Z,3.43
2018-11-03T00:27:49.495Z,2.47
2018-11-03T00:30:17.858Z,3.30
2018-11-03T00:32:46.099Z,3.63
2018-11-03T00:35:14.364Z,3.83
2018-11-03T00:37:42.695Z,3.80
2018-11-03T00:40:13.078Z,3.80
2018-11-03T00:42:41.479Z,4.03
2018-11-03T00:45:11.051Z,5.00
2018-11-03T00:47:40.287Z,3.77
2018-11-03T00:50:09.556Z,3.20
2018-11-03T00:52:37.873Z,3.13
2018-11-03T00:55:06.603Z,3.30
2018-11-03T00:57:34.859Z,2.87
2018-11-03T01:00:03.303Z,3.77
2018-11-03T01:02:31.592Z,2.70
2018-11-03T01:04:59.888Z,5.07
2018-11-03T01:07:28.200Z,3.10
2018-11-03T01:09:56.459Z,3.50
2018-11-03T01:12:24.740Z,3.70
2018-11-03T01:14:53.012Z,3.63
2018-11-03T01:17:21.255Z,4.20
2018-11-03T01:19:49.521Z,3.27
2018-11-03T01:22:17.775Z,4.00
2018-11-03T01:24:46.021Z,2.50
2018-11-03T01:27:14.295Z,3.53
2018-11-03T01:29:42.616Z,2.43
2018-11-03T01:32:10.881Z,3.27
2018-11-03T01:34:39.107Z,3.23
2018-11-03T01:37:07.552Z,2.93
2018-11-03T01:39:35.790Z,3.30
2018-11-03T01:42:04.035Z,3.40
2018-11-03T01:44:32.309Z,4.03
2018-11-03T01:47:00.569Z,3.37
2018-11-03T01:49:28.870Z,3.97
2018-11-03T01:51:57.202Z,2.73
2018-11-03T01:54:25.776Z,3.90
2018-11-03T01:56:54.002Z,3.13
2018-11-03T01:59:22.289Z,3.60
2018-11-03T02:01:50.795Z,2.23
2018-11-03T02:04:19.062Z,4.37
2018-11-03T02:06:47.319Z,3.33
2018-11-03T02:09:15.583Z,3.60
2018-11-03T02:11:43.844Z,2.63
2018-11-03T02:14:12.076Z,2.97
2018-11-03T02:16:40.383Z,4.80
2018-11-03T02:19:08.666Z,2.67
2018-11-03T02:21:37.020Z,2.60
2018-11-03T02:24:05.865Z,2.97
2018-11-03T02:26:34.208Z,3.07
2018-11-03T02:29:02.546Z,3.47
2018-11-03T02:31:30.813Z,3.77
2018-11-03T02:33:59.121Z,3.57
2018-11-03T02:36:27.699Z,3.40
2018-11-03T02:38:56.253Z,2.77
2018-11-03T02:41:24.572Z,2.53
2018-11-03T02:43:52.839Z,3.10
2018-11-03T02:46:21.124Z,2.80
2018-11-03T02:48:49.511Z,2.10
2018-11-03T02:51:17.749Z,2.63
2018-11-03T02:53:46.104Z,2.90
2018-11-03T02:56:14.428Z,3.80
2018-11-03T02:58:43.064Z,3.43
2018-11-03T03:01:11.353Z,2.97
2018-11-03T03:03:39.567Z,3.50
2018-11-03T03:06:08.197Z,2.80
2018-11-03T03:08:36.530Z,2.93
2018-11-03T03:11:04.877Z,2.73
2018-11-03T03:13:33.337Z,1.90
2018-11-03T03:16:01.606Z,2.90
2018-11-03T03:18:29.841Z,2.73
2018-11-03T03:20:58.122Z,2.10
2018-11-03T03:23:26.377Z,2.80
2018-11-03T03:25:54.616Z,2.93
2018-11-03T03:28:22.859Z,2.10
2018-11-03T03:30:51.143Z,3.17
2018-11-03T03:33:19.475Z,3.03
2018-11-03T03:35:47.719Z,2.93
2018-11-03T03:38:15.984Z,2.57
2018-11-03T03:40:44.249Z,3.10
2018-11-03T03:43:12.567Z,1.90
2018-11-03T03:45:40.867Z,3.10
2018-11-03T03:48:09.162Z,2.70
2018-11-03T03:50:37.404Z,3.10
2018-11-03T03:53:05.684Z,3.47
2018-11-03T03:55:33.961Z,2.57
2018-11-03T03:58:02.230Z,2.43
2018-11-03T04:00:30.504Z,2.40
2018-11-03T04:02:58.748Z,3.60
2018-11-03T04:05:27.023Z,2.70
2018-11-03T04:07:55.336Z,2.60
2018-11-03T04:10:23.565Z,3.30
2018-11-03T04:12:51.876Z,4.17
2018-11-03T04:15:20.135Z,2.40
2018-11-03T04:17:48.430Z,3.57
2018-11-03T04:20:16.706Z,2.30
2018-11-03T04:22:45.053Z,2.80
2018-11-03T04:25:13.303Z,2.60
2018-11-03T04:27:41.581Z,2.00
2018-11-03T04:30:12.308Z,1.97
2018-11-03T04:32:40.642Z,3.00
2018-11-03T04:35:09.331Z,2.57
2018-11-03T04:37:37.623Z,3.83
2018-11-03T04:40:07.107Z,2.47
2018-11-03T04:42:35.359Z,2.40
2018-11-03T04:45:03.864Z,3.63
2018-11-03T04:47:32.239Z,2.37
2018-11-03T04:50:00.618Z,3.17
2018-11-03T04:52:28.890Z,2.83
2018-11-03T04:54:57.186Z,2.33
2018-11-03T04:57:25.583Z,1.97
2018-11-03T04:59:53.876Z,2.00
2018-11-03T05:02:22.136Z,1.60
2018-11-03T05:04:50.387Z,3.47
2018-11-03T05:07:18.672Z,2.40
2018-11-03T05:09:46.981Z,3.40
2018-11-03T05:12:15.437Z,2.87
2018-11-03T05:14:43.709Z,2.10
2018-11-03T05:17:11.970Z,3.10
2018-11-03T05:19:40.263Z,2.80
2018-11-03T05:22:08.613Z,2.17
2018-11-03T05:24:37.008Z,3.17
2018-11-03T05:27:05.373Z,2.90
2018-11-03T05:29:33.625Z,2.73
2018-11-03T05:32:01.944Z,3.57
2018-11-03T05:34:30.321Z,2.07
2018-11-03T05:36:58.611Z,2.70
2018-11-03T05:39:26.888Z,3.60
2018-11-03T05:41:55.155Z,3.30
2018-11-03T05:44:23.407Z,2.70
2018-11-03T05:46:51.662Z,3.40
2018-11-03T05:49:19.916Z,2.20
2018-11-03T05:51:48.140Z,2.40
2018-11-03T05:54:16.395Z,3.87
2018-11-03T05:56:44.627Z,3.77
2018-11-03T05:59:12.898Z,2.80
2018-11-03T06:01:41.191Z,1.97
2018-11-03T06:04:09.442Z,2.50
2018-11-03T06:06:37.699Z,2.33
2018-11-03T06:09:07.726Z,2.50
2018-11-03T06:11:35.981Z,3.10
2018-11-03T06:14:04.351Z,3.30
2018-11-03T06:16:32.550Z,3.27
2018-11-03T06:19:00.951Z,2.23
2018-11-03T06:21:29.191Z,3.20
2018-11-03T06:23:57.428Z,2.57
2018-11-03T06:26:25.671Z,3.63
2018-11-03T06:28:53.927Z,2.20
2018-11-03T06:31:22.175Z,3.10
2018-11-03T06:33:50.387Z,2.90
2018-11-03T06:36:18.627Z,2.20
2018-11-03T06:38:46.940Z,2.47
2018-11-03T06:41:15.132Z,3.00
2018-11-03T06:43:43.411Z,4.70
2018-11-03T06:46:11.687Z,7.20
2018-11-03T06:48:39.908Z,5.27
2018-11-03T06:51:08.162Z,4.53
2018-11-03T06:53:36.396Z,5.50
2018-11-03T06:56:04.717Z,3.57
2018-11-03T06:58:33.188Z,5.00
2018-11-03T07:01:01.664Z,3.23
2018-11-03T07:03:29.900Z,4.80
2018-11-03T07:05:58.255Z,4.80
2018-11-03T07:08:26.497Z,2.53
2018-11-03T07:10:54.720Z,3.80
2018-11-03T07:13:23.063Z,3.10
2018-11-03T07:15:51.308Z,5.87
2018-11-03T07:18:19.579Z,3.30
2018-11-03T07:20:47.828Z,5.00
2018-11-03T07:23:16.122Z,4.20
2018-11-03T07:25:44.347Z,4.33
2018-11-03T07:28:12.635Z,4.77
2018-11-03T07:30:40.953Z,3.90
2018-11-03T07:33:09.454Z,4.63
2018-11-03T07:35:37.774Z,4.50
2018-11-03T07:38:06.199Z,4.57
2018-11-03T07:40:34.487Z,8.60
2018-11-03T07:43:02.813Z,9.43
2018-11-03T07:45:31.165Z,4.13
2018-11-03T07:47:59.548Z,6.50
2018-11-03T07:50:28.160Z,3.27
2018-11-03T07:52:56.518Z,3.63
2018-11-03T07:55:24.844Z,4.63
2018-11-03T07:57:53.834Z,5.10
2018-11-03T08:00:22.207Z,5.60
2018-11-03T08:02:51.668Z,4.50
2018-11-03T08:05:20.319Z,4.37
2018-11-03T08:07:57.226Z,4.30
2018-11-03T08:10:29.438Z,3.97
2018-11-03T08:38:16.928Z,5.93
2018-11-03T08:40:46.648Z,7.37
2018-11-03T08:44:16.662Z,5.43
2018-11-03T08:46:46.030Z,4.90
2018-11-03T08:49:15.104Z,5.80
2018-11-03T08:51:50.220Z,5.33
2018-11-03T08:54:27.049Z,6.03
2018-11-03T09:31:59.408Z,6.70
2018-11-03T10:07:48.577Z,7.00
2018-11-03T10:10:18.496Z,7.33
2018-11-03T10:12:47.696Z,6.20
2018-11-03T10:15:17.603Z,8.07
2018-11-03T10:17:47.689Z,8.40
2018-11-03T10:20:16.618Z,8.10
2018-11-03T10:22:45.370Z,8.27
2018-11-03T10:25:20.720Z,7.63
2018-11-03T10:27:50.128Z,7.50
2018-11-03T10:30:18.977Z,8.13
2018-11-03T10:32:48.374Z,7.17
2018-11-03T10:35:16.648Z,7.83
2018-11-03T10:37:45.328Z,6.90
2018-11-03T10:40:16.904Z,6.70
2018-11-03T10:42:45.383Z,8.30
2018-11-03T10:45:18.177Z,6.30
2018-11-03T10:47:46.807Z,8.10
2018-11-03T10:50:21.724Z,5.50
2018-11-03T10:52:51.112Z,6.63
2018-11-03T10:55:26.824Z,6.87
2018-11-03T10:57:56.205Z,6.20
2018-11-03T11:04:10.342Z,5.57
2018-11-03T11:09:46.985Z,5.50
2018-11-03T11:12:24.359Z,5.97
2018-11-03T11:15:33.748Z,5.83
2018-11-03T11:18:15.157Z,5.60
2018-11-03T11:25:07.549Z,5.47
2018-11-03T11:30:43.438Z,4.80
2018-11-03T11:33:20.234Z,5.80
2018-11-03T11:42:29.391Z,4.47
2018-11-03T11:51:53.572Z,4.30
2018-11-03T11:54:21.884Z,4.27
2018-11-03T11:56:50.500Z,4.43
2018-11-03T11:59:22.512Z,5.37
2018-11-03T12:01:55.006Z,4.90
2018-11-03T12:04:26.885Z,3.53
2018-11-03T12:06:57.092Z,3.63
2018-11-03T12:09:28.213Z,3.80
2018-11-03T12:12:00.569Z,4.43
2018-11-03T12:14:34.648Z,4.40
2018-11-03T12:17:07.008Z,5.10
2018-11-03T12:19:38.607Z,4.40
2018-11-03T12:22:07.591Z,3.50
2018-11-03T12:24:41.418Z,3.10
2018-11-03T12:27:10.299Z,3.03
2018-11-03T12:29:38.583Z,4.27
2018-11-03T12:32:07.317Z,3.93
2018-11-03T12:34:43.589Z,2.80
2018-11-03T12:37:25.786Z,3.77
2018-11-03T12:40:06.317Z,3.43
2018-11-03T12:42:36.175Z,3.37
2018-11-03T12:45:07.306Z,2.80
2018-11-03T12:47:42.577Z,3.57
2018-11-03T12:50:16.869Z,3.77
2018-11-03T12:52:52.219Z,2.90
2018-11-03T12:55:28.890Z,2.63
2018-11-03T13:00:54.229Z,3.90
2018-11-03T13:03:27.118Z,3.40
2018-11-03T13:06:04.950Z,3.93
2018-11-03T13:08:41.880Z,2.97
2018-11-03T13:11:11.292Z,7.17
2018-11-03T13:13:39.675Z,3.10
2018-11-03T13:16:07.922Z,2.10
2018-11-03T13:18:36.259Z,1.40
2018-11-03T13:21:04.542Z,2.40
2018-11-03T13:23:32.777Z,1.33
2018-11-03T13:26:01.147Z,1.67
2018-11-03T13:28:29.361Z,1.50
2018-11-03T13:30:57.643Z,2.53
2018-11-03T13:33:25.915Z,1.30
2018-11-03T13:35:54.219Z,1.70
2018-11-03T13:38:22.600Z,1.57
2018-11-03T13:40:50.965Z,1.73
2018-11-03T13:43:19.518Z,1.50
2018-11-03T13:45:47.933Z,1.40
2018-11-03T13:48:16.199Z,1.40
2018-11-03T13:50:44.540Z,1.90
2018-11-03T13:53:12.900Z,1.77
2018-11-03T13:55:41.486Z,1.30
2018-11-03T13:58:09.760Z,1.63
2018-11-03T14:00:38.081Z,1.80
2018-11-03T14:03:06.432Z,1.97
2018-11-03T14:05:34.786Z,3.03
2018-11-03T14:08:03.071Z,1.10
2018-11-03T14:10:32.614Z,1.80
2018-11-03T14:13:01.016Z,1.40
2018-11-03T14:15:29.350Z,1.20
2018-11-03T14:17:57.972Z,1.60
2018-11-03T14:20:26.244Z,1.53
2018-11-03T14:22:55.642Z,1.17
2018-11-03T14:25:23.895Z,1.33
2018-11-03T14:27:52.210Z,1.10
2018-11-03T14:30:20.469Z,1.17
2018-11-03T14:32:48.737Z,1.20
2018-11-03T14:35:17.269Z,1.20
2018-11-03T14:37:45.667Z,1.30
2018-11-03T14:40:16.312Z,1.43
2018-11-03T14:42:45.220Z,1.90
2018-11-03T14:45:14.403Z,1.53
2018-11-03T14:47:42.670Z,1.20
2018-11-03T14:50:11.012Z,1.53
2018-11-03T14:52:40.507Z,1.60
2018-11-03T14:55:09.599Z,1.90
2018-11-03T14:57:38.035Z,1.37
2018-11-03T15:00:12.187Z,1.63
2018-11-03T15:02:40.449Z,1.60
2018-11-03T15:05:09.307Z,1.80
2018-11-03T15:07:37.811Z,1.50
2018-11-03T15:10:08.503Z,2.07
2018-11-03T15:12:36.899Z,1.60
2018-11-03T15:15:06.044Z,2.10
2018-11-03T15:17:34.489Z,1.70
2018-11-03T15:20:02.874Z,1.40
2018-11-03T15:22:31.329Z,2.40
2018-11-03T15:24:59.686Z,2.40
2018-11-03T15:27:30.721Z,2.00
2018-11-03T15:29:58.983Z,1.53
2018-11-03T15:32:27.321Z,2.30
2018-11-03T15:34:56.236Z,2.07
2018-11-03T15:37:25.089Z,2.20
2018-11-03T15:39:58.712Z,2.37
2018-11-03T15:42:27.302Z,2.23
2018-11-03T15:44:56.972Z,2.20
2018-11-03T15:47:25.390Z,2.70
2018-11-03T15:49:54.660Z,2.20
2018-11-03T15:52:24.240Z,2.10
2018-11-03T15:54:54.502Z,1.90
2018-11-03T15:57:24.066Z,2.50
2018-11-03T15:59:53.185Z,1.60
2018-11-03T16:02:21.763Z,2.40
2018-11-03T16:04:50.133Z,2.10
2018-11-03T16:07:18.513Z,1.90
2018-11-03T16:09:47.041Z,2.67
2018-11-03T16:12:15.459Z,2.03
2018-11-03T16:14:43.851Z,2.10
2018-11-03T16:17:12.188Z,1.60
2018-11-03T16:19:40.564Z,2.13
2018-11-03T16:22:08.783Z,1.93
2018-11-03T16:24:37.154Z,2.57
2018-11-03T16:27:06.781Z,1.70
2018-11-03T16:29:35.159Z,1.87
2018-11-03T16:32:03.481Z,2.23
2018-11-03T16:34:31.987Z,1.60
2018-11-03T16:37:00.512Z,1.90
2018-11-03T16:39:28.853Z,3.17
2018-11-03T16:41:59.207Z,2.67
2018-11-03T16:44:30.064Z,2.60
2018-11-03T16:46:58.467Z,2.40
2018-11-03T16:49:26.881Z,1.47
2018-11-03T16:51:55.272Z,1.90
2018-11-03T16:54:26.873Z,2.60
2018-11-03T16:56:55.400Z,5.67
2018-11-03T16:59:23.785Z,4.60
2018-11-03T17:01:52.505Z,2.27
2018-11-03T17:04:20.797Z,2.87
2018-11-03T17:06:49.304Z,3.17
2018-11-03T17:09:17.720Z,2.43
2018-11-03T17:11:46.243Z,5.03
2018-11-03T17:14:14.710Z,3.67
2018-11-03T17:16:43.257Z,2.10
2018-11-03T17:19:11.667Z,1.60
2018-11-03T17:21:40.250Z,2.23
2018-11-03T17:24:08.547Z,1.87
2018-11-03T17:26:36.846Z,1.37
2018-11-03T17:29:05.460Z,2.10
2018-11-03T17:31:33.773Z,1.83
2018-11-03T17:34:02.239Z,2.90
2018-11-03T17:36:32.958Z,5.10
2018-11-03T17:39:01.111Z,4.00
2018-11-03T17:41:34.559Z,3.60
2018-11-03T17:44:05.285Z,4.30
2018-11-03T17:46:37.037Z,4.13
2018-11-03T17:49:05.491Z,4.90
2018-11-03T17:51:33.944Z,8.10
2018-11-03T17:54:02.566Z,9.27
2018-11-03T17:56:30.930Z,8.77
2018-11-03T17:58:59.701Z,5.10
2018-11-03T18:01:29.071Z,5.00
2018-11-03T18:03:57.403Z,3.30
2018-11-03T18:06:25.861Z,2.87
2018-11-03T18:08:56.085Z,2.73
2018-11-03T18:11:24.520Z,1.97
2018-11-03T18:13:52.965Z,5.20
2018-11-03T18:16:21.324Z,8.17
2018-11-03T18:18:49.751Z,6.87
2018-11-03T18:21:18.179Z,5.53
2018-11-03T18:23:46.612Z,5.30
2018-11-03T18:26:15.037Z,3.83
2018-11-03T18:28:43.289Z,3.73
2018-11-03T18:31:11.730Z,4.20
2018-11-03T18:33:40.136Z,4.93
2018-11-03T18:36:08.494Z,4.03
2018-11-03T18:38:36.876Z,2.77
2018-11-03T18:41:05.443Z,3.83
2018-11-03T18:43:33.848Z,2.17
2018-11-03T18:46:02.219Z,2.40
2018-11-03T18:48:30.764Z,2.50
2018-11-03T18:50:59.179Z,1.63
2018-11-03T18:53:27.534Z,2.47
2018-11-03T18:55:55.862Z,3.07
2018-11-03T18:58:24.216Z,1.73
2018-11-03T19:00:53.679Z,2.23
2018-11-03T19:03:22.589Z,2.83
2018-11-03T19:05:53.928Z,2.60
2018-11-03T19:08:22.724Z,2.47
2018-11-03T19:10:51.130Z,2.93
2018-11-03T19:13:20.563Z,4.27
2018-11-03T19:15:52.681Z,2.77
2018-11-03T19:18:23.161Z,2.80
2018-11-03T19:20:51.983Z,2.57
2018-11-03T19:23:20.358Z,2.87
2018-11-03T19:25:51.073Z,3.57
2018-11-03T19:28:21.834Z,3.47
2018-11-03T19:30:50.984Z,3.20
2018-11-03T19:33:19.505Z,4.47
2018-11-03T19:35:54.358Z,5.17
2018-11-03T19:38:22.691Z,3.83
2018-11-03T19:40:54.236Z,5.80
2018-11-03T19:43:23.695Z,5.23
2018-11-03T19:45:56.175Z,4.80
2018-11-03T19:48:24.781Z,5.90
2018-11-03T19:50:53.311Z,4.90
2018-11-03T19:53:23.556Z,4.23
2018-11-03T19:55:53.539Z,4.27
2018-11-03T19:58:21.952Z,4.50
2018-11-03T20:00:50.337Z,4.30
2018-11-03T20:03:18.865Z,4.93
2018-11-03T20:05:47.090Z,4.40
2018-11-03T20:08:15.318Z,4.60
2018-11-03T20:10:43.663Z,4.17
2018-11-03T20:13:12.047Z,4.63
2018-11-03T20:15:40.358Z,5.50
2018-11-03T20:18:08.700Z,4.50
2018-11-03T20:20:37.072Z,4.70
2018-11-03T20:23:05.385Z,3.60
2018-11-03T20:25:33.714Z,3.93
2018-11-03T20:28:02.060Z,3.20
2018-11-03T20:30:30.430Z,2.90
2018-11-03T20:32:58.867Z,4.13
2018-11-03T20:35:27.242Z,3.47
2018-11-03T20:37:55.827Z,4.53
2018-11-03T20:40:24.208Z,3.67
2018-11-03T20:42:52.979Z,2.80
2018-11-03T20:45:21.792Z,3.33
2018-11-03T20:47:50.123Z,5.23
2018-11-03T20:50:18.541Z,4.03
2018-11-03T20:52:46.808Z,3.00
2018-11-03T20:55:15.368Z,3.43
2018-11-03T20:57:43.876Z,4.43
2018-11-03T21:00:14.566Z,4.97
2018-11-03T21:02:43.888Z,3.77
2018-11-03T21:05:12.432Z,3.07
2018-11-03T21:07:42.919Z,3.10
2018-11-03T21:10:11.243Z,4.60
2018-11-03T21:12:39.986Z,3.37
2018-11-03T21:15:08.802Z,4.13
2018-11-03T21:17:38.367Z,4.30
2018-11-03T21:20:08.539Z,5.93
2018-11-03T21:22:36.912Z,5.40
2018-11-03T21:25:06.013Z,4.83
2018-11-03T21:27:34.719Z,4.20
2018-11-03T21:30:03.366Z,3.90
2018-11-03T21:32:31.680Z,4.77
2018-11-03T21:35:00.219Z,4.00
2018-11-03T21:40:49.787Z,4.27
2018-11-03T21:43:19.091Z,10.00
2018-11-03T21:45:47.912Z,8.60
2018-11-03T21:48:18.182Z,8.10
2018-11-03T21:50:47.029Z,5.67
2018-11-03T21:53:15.992Z,6.13
2018-11-03T21:55:44.542Z,5.97
2018-11-03T21:58:12.927Z,4.47
2018-11-03T22:00:41.417Z,2.70
2018-11-03T22:03:09.741Z,6.20
2018-11-03T22:05:38.208Z,6.30
2018-11-03T22:08:06.587Z,7.70
2018-11-03T22:10:35.192Z,10.13
2018-11-03T22:13:03.999Z,7.33
2018-11-03T22:15:33.034Z,8.33
2018-11-03T22:18:01.433Z,7.07
2018-11-03T22:20:31.795Z,5.43
2018-11-03T22:23:04.308Z,5.73
2018-11-03T22:25:32.583Z,6.40
2018-11-03T22:28:01.345Z,6.30
2018-11-03T22:30:29.714Z,11.37
2018-11-03T22:32:58.753Z,7.50
2018-11-03T22:35:30.402Z,4.80
2018-11-03T22:37:58.952Z,7.70
2018-11-03T22:40:27.412Z,5.83
2018-11-03T22:42:58.034Z,3.97
2018-11-03T22:45:26.546Z,5.93
2018-11-03T22:47:55.955Z,7.00
2018-11-03T22:50:24.926Z,5.03
2018-11-03T22:52:53.471Z,4.97
2018-11-03T22:55:22.067Z,4.40
2018-11-03T22:57:50.409Z,4.47
2018-11-03T23:00:18.830Z,4.97
2018-11-03T23:02:47.311Z,4.37
2018-11-03T23:05:15.857Z,3.97
2018-11-03T23:07:45.548Z,3.87
2018-11-03T23:10:14.485Z,3.90
2018-11-03T23:12:43.130Z,4.20
2018-11-03T23:15:12.243Z,3.17
2018-11-03T23:17:40.657Z,2.70
2018-11-03T23:20:12.416Z,3.50
2018-11-03T23:22:41.614Z,2.73
2018-11-03T23:25:11.351Z,4.67
2018-11-03T23:27:40.918Z,4.17
2018-11-03T23:33:25.123Z,3.03
2018-11-03T23:35:54.614Z,2.80
2018-11-03T23:38:24.112Z,3.70
2018-11-03T23:40:54.870Z,3.70
2018-11-03T23:43:26.652Z,3.70
2018-11-03T23:45:56.000Z,2.87
2018-11-03T23:48:25.686Z,3.10
2018-11-03T23:50:54.294Z,3.23
2018-11-03T23:53:23.125Z,3.13
2018-11-03T23:55:54.329Z,3.10
2018-11-03T23:58:24.961Z,3.73
